createdAt,value
2022-10-22T00:02:38.060Z,3.42
2022-10-22T00:07:42.560Z,4.12
2022-10-22T00:12:46.511Z,3.95
2022-10-22T00:17:51.880Z,4.62
2022-10-22T00:22:55.630Z,6.10
2022-10-22T00:27:59.358Z,6.00
2022-10-22T00:33:04.621Z,6.07
2022-10-22T00:38:08.283Z,6.07
2022-10-22T00:43:12.612Z,6.45
2022-10-22T00:48:21.805Z,6.45
2022-10-22T00:53:30.908Z,5.97
2022-10-22T00:58:37.455Z,6.22
2022-10-22T01:03:42.502Z,5.65
2022-10-22T01:08:55.767Z,5.87
2022-10-22T01:14:11.103Z,5.90
2022-10-22T01:19:40.808Z,5.65
2022-10-22T01:24:57.204Z,5.55
2022-10-22T01:30:05.766Z,5.60
2022-10-22T01:35:12.676Z,5.57
2022-10-22T01:40:17.220Z,6.07
2022-10-22T01:45:22.332Z,6.43
2022-10-22T01:50:58.248Z,5.68
2022-10-22T01:56:17.859Z,5.87
2022-10-22T02:01:32.394Z,5.30
2022-10-22T02:06:38.393Z,5.40
2022-10-22T02:11:43.185Z,5.07
2022-10-22T02:16:50.687Z,4.75
2022-10-22T02:21:55.584Z,5.20
2022-10-22T02:27:08.295Z,4.53
2022-10-22T02:32:19.216Z,4.62
2022-10-22T02:37:23.923Z,4.20
2022-10-22T02:42:29.364Z,4.72
2022-10-22T02:47:34.385Z,3.67
2022-10-22T02:52:38.605Z,4.85
2022-10-22T02:57:42.830Z,4.60
2022-10-22T03:02:48.259Z,4.35
2022-10-22T03:07:51.923Z,5.85
2022-10-22T03:12:56.085Z,4.65
2022-10-22T03:18:01.197Z,5.45
2022-10-22T03:23:04.970Z,4.50
2022-10-22T03:28:11.919Z,4.62
2022-10-22T03:33:16.915Z,4.57
2022-10-22T03:38:20.727Z,4.22
2022-10-22T03:43:24.454Z,4.60
2022-10-22T03:48:29.450Z,4.43
2022-10-22T03:53:33.134Z,4.20
2022-10-22T03:58:36.916Z,3.83
2022-10-22T04:03:41.984Z,4.35
2022-10-22T04:08:46.927Z,5.47
2022-10-22T04:13:50.659Z,4.07
2022-10-22T04:18:55.708Z,4.12
2022-10-22T04:23:59.441Z,3.83
2022-10-22T04:29:03.169Z,4.80
2022-10-22T04:34:08.200Z,3.45
2022-10-22T04:39:11.862Z,3.92
2022-10-22T04:44:17.028Z,4.20
2022-10-22T04:49:23.601Z,3.72
2022-10-22T04:54:30.505Z,3.78
2022-10-22T04:59:36.716Z,4.12
2022-10-22T05:04:44.638Z,3.62
2022-10-22T05:09:48.310Z,3.22
2022-10-22T05:14:51.982Z,3.58
2022-10-22T05:19:57.003Z,2.72
2022-10-22T05:25:00.624Z,3.08
2022-10-22T05:30:04.774Z,3.50
2022-10-22T05:35:10.480Z,2.70
2022-10-22T05:40:26.601Z,3.12
2022-10-22T05:45:37.764Z,3.35
2022-10-22T05:50:42.754Z,3.40
2022-10-22T05:55:46.574Z,3.83
2022-10-22T06:00:50.296Z,3.50
2022-10-22T06:05:55.334Z,3.60
2022-10-22T06:10:59.214Z,3.12
2022-10-22T06:16:02.902Z,2.97
2022-10-22T06:21:10.080Z,2.50
2022-10-22T06:26:13.776Z,3.17
2022-10-22T06:31:17.663Z,3.08
2022-10-22T06:36:25.370Z,3.03
2022-10-22T06:41:29.777Z,2.83
2022-10-22T06:46:33.639Z,3.25
2022-10-22T06:51:38.686Z,2.92
2022-10-22T06:56:42.876Z,3.45
2022-10-22T07:01:46.758Z,3.00
2022-10-22T07:06:52.069Z,2.78
2022-10-22T07:11:55.737Z,2.47
2022-10-22T07:16:59.428Z,2.80
2022-10-22T07:22:04.532Z,2.72
2022-10-22T07:27:11.060Z,4.22
2022-10-22T07:32:15.564Z,2.53
2022-10-22T07:37:22.062Z,3.47
2022-10-22T07:42:25.910Z,2.72
2022-10-22T07:47:29.679Z,3.50
2022-10-22T07:52:34.850Z,2.65
2022-10-22T07:57:38.677Z,2.20
2022-10-22T08:02:43.022Z,2.35
2022-10-22T08:07:48.311Z,2.50
2022-10-22T08:12:51.988Z,2.75
2022-10-22T08:17:55.801Z,2.12
2022-10-22T08:23:00.968Z,2.72
2022-10-22T08:28:04.859Z,2.12
2022-10-22T08:33:08.544Z,2.72
2022-10-22T08:38:13.628Z,2.42
2022-10-22T08:43:37.876Z,2.78
2022-10-22T08:48:45.670Z,2.30
2022-10-22T08:54:13.497Z,2.20
2022-10-22T08:59:24.238Z,2.85
2022-10-22T09:04:32.108Z,2.55
2022-10-22T09:09:43.343Z,1.70
2022-10-22T09:14:47.102Z,2.37
2022-10-22T09:20:01.967Z,2.60
2022-10-22T09:25:20.128Z,2.10
2022-10-22T09:30:25.379Z,2.75
2022-10-22T09:35:29.576Z,2.28
2022-10-22T09:40:44.459Z,2.33
2022-10-22T09:45:49.706Z,2.45
2022-10-22T09:50:58.404Z,2.50
2022-10-22T09:56:10.032Z,2.10
2022-10-22T10:01:19.531Z,2.95
2022-10-22T10:06:24.596Z,2.05
2022-10-22T10:11:33.444Z,2.30
2022-10-22T10:16:56.724Z,2.33
2022-10-22T10:22:11.953Z,2.37
2022-10-22T10:27:26.006Z,2.55
2022-10-22T10:32:48.198Z,2.12
2022-10-22T10:38:04.653Z,2.15
2022-10-22T10:43:14.566Z,2.62
2022-10-22T10:48:33.350Z,2.25
2022-10-22T10:53:56.064Z,2.97
2022-10-22T10:59:13.573Z,2.62
2022-10-22T11:04:35.187Z,2.63
2022-10-22T11:09:44.732Z,3.35
2022-10-22T11:14:59.519Z,2.50
2022-10-22T11:20:13.386Z,4.20
2022-10-22T11:25:22.839Z,2.78
2022-10-22T11:30:33.020Z,2.80
2022-10-22T11:35:41.329Z,2.70
2022-10-22T11:40:48.409Z,2.47
2022-10-22T11:46:01.839Z,3.97
2022-10-22T11:51:26.598Z,2.40
2022-10-22T11:56:38.577Z,3.60
2022-10-22T12:01:44.253Z,2.00
2022-10-22T12:06:57.081Z,2.37
2022-10-22T12:12:15.614Z,2.80
2022-10-22T12:17:22.801Z,2.70
2022-10-22T12:22:29.396Z,2.25
2022-10-22T12:27:37.319Z,2.72
2022-10-22T12:32:42.461Z,2.45
2022-10-22T12:37:46.606Z,2.42
2022-10-22T12:42:54.996Z,2.00
2022-10-22T12:48:02.330Z,2.30
2022-10-22T12:53:07.121Z,1.90
2022-10-22T12:58:17.399Z,2.30
2022-10-22T13:03:29.433Z,2.00
2022-10-22T13:08:35.401Z,2.33
2022-10-22T13:13:45.538Z,2.30
2022-10-22T13:18:51.243Z,1.92
2022-10-22T13:23:57.645Z,2.12
2022-10-22T13:29:02.324Z,2.05
2022-10-22T13:34:11.796Z,1.95
2022-10-22T13:39:19.079Z,1.80
2022-10-22T13:44:22.729Z,1.70
2022-10-22T13:49:27.717Z,2.25
2022-10-22T13:54:31.475Z,2.20
2022-10-22T13:59:35.100Z,1.83
2022-10-22T14:04:41.981Z,2.40
2022-10-22T14:09:45.644Z,2.30
2022-10-22T14:14:49.327Z,1.60
2022-10-22T14:19:54.599Z,1.60
2022-10-22T14:24:58.467Z,1.80
2022-10-22T14:30:02.178Z,1.90
2022-10-22T14:35:07.964Z,1.37
2022-10-22T14:40:14.919Z,2.65
2022-10-22T14:45:20.994Z,1.62
2022-10-22T14:50:26.402Z,2.12
2022-10-22T14:55:30.107Z,2.12
2022-10-22T15:00:34.463Z,2.03
2022-10-22T15:05:44.441Z,1.30
2022-10-22T15:10:57.926Z,1.50
2022-10-22T15:16:01.978Z,1.80
2022-10-22T15:21:09.129Z,2.45
2022-10-22T15:31:18.203Z,1.85
2022-10-22T15:36:23.225Z,1.75
2022-10-22T15:41:27.032Z,2.30
2022-10-22T15:46:34.674Z,2.10
2022-10-22T15:51:40.675Z,1.77
2022-10-22T15:56:44.571Z,2.10
2022-10-22T16:01:48.685Z,2.10
2022-10-22T16:06:54.702Z,2.05
2022-10-22T16:11:58.372Z,2.05
2022-10-22T16:17:02.119Z,2.20
2022-10-22T16:22:10.072Z,3.45
2022-10-22T16:32:18.110Z,2.97
2022-10-22T16:37:23.248Z,2.42
2022-10-22T16:42:26.953Z,3.10
2022-10-22T16:47:30.956Z,2.90
2022-10-22T16:52:36.465Z,2.83
2022-10-22T16:57:40.468Z,3.50
2022-10-22T17:02:44.570Z,3.97
2022-10-22T17:07:50.414Z,4.07
2022-10-22T17:12:54.373Z,3.42
2022-10-22T17:18:00.808Z,4.22
2022-10-22T17:23:05.939Z,4.32
2022-10-22T17:28:10.167Z,4.75
2022-10-22T17:33:13.953Z,5.28
2022-10-22T17:38:18.993Z,6.20
2022-10-22T17:43:22.704Z,5.40
2022-10-22T17:48:26.516Z,6.30
2022-10-22T17:53:31.888Z,7.15
2022-10-22T17:58:35.649Z,6.65
2022-10-22T18:03:39.362Z,6.30
2022-10-22T18:08:44.689Z,5.90
2022-10-22T18:13:50.491Z,6.53
2022-10-22T18:18:56.568Z,7.20
2022-10-22T18:24:01.683Z,8.02
2022-10-22T18:29:05.532Z,5.87
2022-10-22T18:34:09.218Z,6.45
2022-10-22T18:39:16.100Z,6.65
2022-10-22T18:44:19.844Z,7.45
2022-10-22T18:49:23.611Z,7.80
2022-10-22T18:54:28.813Z,8.30
2022-10-22T18:59:32.483Z,7.05
2022-10-22T19:04:37.520Z,8.40
2022-10-22T19:09:43.868Z,10.15
2022-10-22T19:14:48.780Z,8.75
2022-10-22T19:19:52.517Z,14.90
2022-10-22T19:24:58.882Z,12.70
2022-10-22T19:30:02.564Z,8.95
2022-10-22T19:35:06.734Z,7.03
2022-10-22T19:40:13.198Z,6.90
2022-10-22T19:45:18.283Z,7.32
2022-10-22T19:50:21.976Z,6.18
2022-10-22T19:55:27.160Z,6.90
2022-10-22T20:00:32.148Z,6.78
2022-10-22T20:05:39.268Z,6.68
2022-10-22T20:10:44.525Z,6.70
2022-10-22T20:15:49.548Z,7.07
2022-10-22T20:20:53.307Z,7.10
2022-10-22T20:25:58.304Z,7.32
2022-10-22T20:31:02.087Z,7.55
2022-10-22T20:36:08.725Z,7.15
2022-10-22T20:41:16.194Z,7.47
2022-10-22T20:46:23.098Z,6.60
2022-10-22T20:51:27.129Z,7.50
2022-10-22T20:56:33.148Z,6.82
2022-10-22T21:01:39.612Z,6.80
2022-10-22T21:06:43.595Z,7.18
2022-10-22T21:11:48.749Z,9.48
2022-10-22T21:16:53.186Z,7.47
2022-10-22T21:21:56.833Z,7.12
2022-10-22T21:27:02.685Z,6.55
2022-10-22T21:32:06.636Z,6.35
2022-10-22T21:37:10.404Z,7.05
2022-10-22T21:42:17.103Z,6.47
2022-10-22T21:47:20.791Z,6.25
2022-10-22T21:52:24.670Z,7.37
2022-10-22T21:57:29.765Z,7.25
2022-10-22T22:02:33.528Z,7.80
2022-10-22T22:07:37.286Z,6.40
2022-10-22T22:12:42.520Z,7.22
2022-10-22T22:17:47.685Z,5.93
2022-10-22T22:22:51.361Z,6.57
2022-10-22T22:27:56.417Z,5.40
2022-10-22T22:33:00.123Z,5.50
2022-10-22T22:38:04.162Z,5.60
2022-10-22T22:43:09.660Z,5.87
2022-10-22T22:48:13.372Z,6.57
2022-10-22T22:53:17.036Z,6.57
2022-10-22T22:58:22.093Z,7.00
2022-10-22T23:03:25.817Z,6.00
2022-10-22T23:08:29.507Z,5.90
2022-10-22T23:13:35.259Z,6.87
2022-10-22T23:18:38.948Z,7.10
2022-10-22T23:23:44.664Z,6.80
2022-10-22T23:28:50.156Z,6.60
2022-10-22T23:33:53.867Z,6.15
2022-10-22T23:38:57.884Z,5.53
2022-10-22T23:44:03.384Z,6.25
2022-10-22T23:49:08.531Z,6.30
2022-10-22T23:54:14.477Z,7.50
2022-10-22T23:59:19.522Z,5.85
